createdAt,value
2019-05-06T00:01:45.431Z,68.97
2019-05-06T00:04:17.716Z,68.76
2019-05-06T00:06:50.101Z,69.22
2019-05-06T00:09:24.020Z,69.34
2019-05-06T00:11:56.505Z,70.04
2019-05-06T00:14:28.749Z,70.08
2019-05-06T00:17:01.022Z,70.39
2019-05-06T00:19:34.166Z,70.37
2019-05-06T00:22:06.520Z,70.63
2019-05-06T00:24:38.769Z,70.77
2019-05-06T00:27:11.013Z,71.04
2019-05-06T00:29:43.826Z,71.01
2019-05-06T00:32:17.254Z,71.28
2019-05-06T00:34:49.520Z,71.03
2019-05-06T00:37:21.744Z,71.37
2019-05-06T00:39:53.994Z,71.47
2019-05-06T00:42:26.277Z,71.67
2019-05-06T00:44:58.501Z,71.72
2019-05-06T00:47:30.713Z,71.87
2019-05-06T00:50:04.244Z,71.99
2019-05-06T00:52:37.794Z,72.31
2019-05-06T00:55:10.071Z,72.11
2019-05-06T00:57:43.845Z,72.06
2019-05-06T01:00:16.395Z,72.17
2019-05-06T01:02:48.707Z,72.26
2019-05-06T01:05:20.934Z,72.53
2019-05-06T01:07:54.875Z,72.54
2019-05-06T01:10:27.165Z,72.55
2019-05-06T01:12:59.436Z,72.30
2019-05-06T01:15:31.682Z,72.42
2019-05-06T01:18:04.325Z,72.13
2019-05-06T01:20:37.576Z,71.70
2019-05-06T01:23:09.922Z,71.17
2019-05-06T01:25:43.819Z,70.86
2019-05-06T01:28:16.255Z,71.01
2019-05-06T01:30:48.498Z,71.02
2019-05-06T01:33:20.799Z,71.32
2019-05-06T01:35:54.167Z,71.50
2019-05-06T01:38:26.888Z,71.79
2019-05-06T01:40:59.113Z,71.67
2019-05-06T01:43:31.302Z,71.76
2019-05-06T01:46:04.732Z,72.08
2019-05-06T01:48:37.147Z,72.27
2019-05-06T01:51:09.378Z,71.88
2019-05-06T01:53:41.820Z,71.52
2019-05-06T01:56:14.569Z,71.24
2019-05-06T01:58:47.134Z,71.01
2019-05-06T02:01:19.375Z,70.58
2019-05-06T02:03:53.680Z,70.16
2019-05-06T02:06:25.545Z,70.35
2019-05-06T02:08:57.874Z,69.92
2019-05-06T02:11:30.080Z,69.46
2019-05-06T02:14:04.533Z,69.23
2019-05-06T02:16:36.303Z,69.11
2019-05-06T02:19:08.578Z,69.03
2019-05-06T02:21:40.792Z,68.81
2019-05-06T02:24:13.536Z,68.58
2019-05-06T02:26:45.938Z,68.55
2019-05-06T02:29:18.416Z,68.36
2019-05-06T02:31:50.743Z,69.20
2019-05-06T02:34:25.414Z,69.44
2019-05-06T02:36:56.891Z,69.90
2019-05-06T02:39:29.172Z,70.04
2019-05-06T02:42:04.064Z,70.29
2019-05-06T02:44:35.328Z,70.78
2019-05-06T02:47:07.534Z,71.26
2019-05-06T02:49:39.784Z,71.26
2019-05-06T02:52:14.088Z,71.26
2019-05-06T02:54:46.010Z,71.18
2019-05-06T02:57:20.250Z,71.13
2019-05-06T02:59:55.321Z,71.23
2019-05-06T03:02:38.073Z,71.62
2019-05-06T03:05:04.028Z,71.81
2019-05-06T03:07:37.606Z,71.66
2019-05-06T03:10:09.361Z,71.49
2019-05-06T03:12:43.085Z,71.27
2019-05-06T03:15:17.093Z,70.62
2019-05-06T03:17:49.436Z,70.48
2019-05-06T03:20:23.678Z,69.95
2019-05-06T03:22:55.633Z,70.02
2019-05-06T03:25:28.022Z,69.79
2019-05-06T03:28:00.350Z,69.33
2019-05-06T03:30:36.165Z,69.19
2019-05-06T03:33:37.978Z,68.61
2019-05-06T03:35:57.811Z,68.96
2019-05-06T03:38:16.540Z,69.62
2019-05-06T03:40:48.905Z,70.02
2019-05-06T03:43:23.324Z,70.34
2019-05-06T03:45:57.298Z,70.48
2019-05-06T03:48:33.308Z,70.63
2019-05-06T03:51:04.562Z,71.42
2019-05-06T03:53:36.988Z,71.54
2019-05-06T03:56:09.226Z,71.96
2019-05-06T03:58:43.507Z,72.20
2019-05-06T04:01:15.419Z,72.42
2019-05-06T04:03:52.693Z,72.38
2019-05-06T04:06:24.107Z,72.34
2019-05-06T04:08:55.741Z,72.33
2019-05-06T04:11:28.337Z,72.70
2019-05-06T04:14:02.839Z,72.59
2019-05-06T04:16:34.959Z,72.52
2019-05-06T04:19:07.235Z,72.62
2019-05-06T04:21:39.516Z,72.45
2019-05-06T04:24:13.340Z,72.87
2019-05-06T04:26:46.511Z,72.75
2019-05-06T04:29:18.912Z,72.74
2019-05-06T04:31:53.865Z,72.26
2019-05-06T04:34:25.172Z,72.28
2019-05-06T04:36:57.401Z,72.58
2019-05-06T04:39:32.776Z,72.10
2019-05-06T04:42:09.337Z,71.50
2019-05-06T04:44:40.102Z,71.23
2019-05-06T04:47:14.699Z,70.99
2019-05-06T04:49:46.310Z,70.81
2019-05-06T04:52:18.606Z,70.68
2019-05-06T04:54:53.205Z,70.74
2019-05-06T04:57:25.000Z,70.45
2019-05-06T04:59:57.994Z,70.40
2019-05-06T05:02:33.696Z,70.58
2019-05-06T05:05:05.338Z,70.63
2019-05-06T05:07:37.976Z,70.78
2019-05-06T05:10:12.514Z,70.69
2019-05-06T05:12:44.325Z,70.67
2019-05-06T05:15:16.558Z,70.82
2019-05-06T05:17:48.992Z,71.10
2019-05-06T05:20:36.466Z,71.04
2019-05-06T05:22:55.419Z,71.08
2019-05-06T05:25:27.749Z,70.59
2019-05-06T05:28:02.155Z,70.52
2019-05-06T05:30:36.734Z,70.20
2019-05-06T05:33:08.948Z,69.81
2019-05-06T05:35:43.081Z,69.54
2019-05-06T05:38:17.182Z,69.53
2019-05-06T05:40:49.692Z,69.47
2019-05-06T05:43:22.815Z,68.70
2019-05-06T05:45:55.268Z,68.39
2019-05-06T05:48:27.712Z,68.13
2019-05-06T05:50:59.961Z,65.53
2019-05-06T05:53:32.967Z,64.69
2019-05-06T05:56:05.237Z,63.72
2019-05-06T05:58:37.780Z,62.39
2019-05-06T06:01:12.471Z,60.29
2019-05-06T06:03:44.017Z,60.24
2019-05-06T06:06:16.283Z,60.42
2019-05-06T06:08:48.553Z,61.27
2019-05-06T06:11:22.877Z,61.82
2019-05-06T06:13:54.743Z,61.99
2019-05-06T06:16:27.047Z,61.27
2019-05-06T06:18:59.386Z,61.33
2019-05-06T06:21:32.373Z,60.78
2019-05-06T06:24:04.678Z,60.76
2019-05-06T06:26:36.883Z,59.00
2019-05-06T06:29:09.121Z,58.66
2019-05-06T06:31:42.802Z,57.68
2019-05-06T06:34:15.123Z,57.18
2019-05-06T06:36:47.625Z,57.40
2019-05-06T06:39:20.145Z,57.17
2019-05-06T06:41:52.369Z,56.33
2019-05-06T06:44:24.608Z,56.59
2019-05-06T06:46:56.801Z,57.18
2019-05-06T06:49:29.019Z,57.28
2019-05-06T06:52:02.787Z,57.29
2019-05-06T06:54:35.256Z,56.91
2019-05-06T06:57:09.319Z,57.40
2019-05-06T06:59:42.661Z,56.50
2019-05-06T07:02:15.792Z,56.40
2019-05-06T07:04:48.026Z,57.50
2019-05-06T07:07:20.282Z,57.65
2019-05-06T07:09:52.721Z,57.26
2019-05-06T07:12:25.211Z,57.41
2019-05-06T07:14:57.374Z,57.29
2019-05-06T07:17:29.600Z,57.37
2019-05-06T07:20:02.853Z,57.86
2019-05-06T07:22:36.538Z,57.17
2019-05-06T07:25:08.796Z,57.48
2019-05-06T07:27:42.014Z,58.49
2019-05-06T07:30:14.603Z,57.67
2019-05-06T07:32:46.850Z,57.76
2019-05-06T07:35:19.305Z,58.25
2019-05-06T07:37:53.032Z,59.44
2019-05-06T07:40:25.499Z,59.99
2019-05-06T07:42:57.813Z,59.30
2019-05-06T07:45:30.168Z,59.01
2019-05-06T07:48:03.576Z,58.98
2019-05-06T07:50:36.074Z,59.23
2019-05-06T07:53:08.409Z,59.14
2019-05-06T07:55:42.435Z,59.15
2019-05-06T07:58:16.230Z,59.04
2019-05-06T08:00:48.812Z,58.91
2019-05-06T08:03:22.232Z,58.92
2019-05-06T08:05:58.597Z,59.00
2019-05-06T08:08:28.571Z,59.11
2019-05-06T08:11:02.726Z,59.04
2019-05-06T08:13:34.665Z,59.62
2019-05-06T08:16:07.172Z,59.51
2019-05-06T08:18:39.442Z,59.19
2019-05-06T08:21:13.048Z,57.82
2019-05-06T08:23:45.488Z,58.31
2019-05-06T08:26:18.249Z,58.69
2019-05-06T08:28:52.692Z,57.66
2019-05-06T08:31:24.749Z,57.74
2019-05-06T08:33:57.005Z,58.62
2019-05-06T08:36:30.547Z,57.33
2019-05-06T08:39:03.043Z,57.25
2019-05-06T08:41:36.836Z,58.10
2019-05-06T08:44:09.113Z,57.28
2019-05-06T08:46:43.202Z,57.11
2019-05-06T08:49:15.382Z,56.75
2019-05-06T08:51:48.064Z,55.51
2019-05-06T08:54:22.573Z,54.75
2019-05-06T08:56:54.418Z,54.36
2019-05-06T08:59:26.958Z,54.27
2019-05-06T09:01:59.211Z,54.08
2019-05-06T09:04:32.066Z,53.11
2019-05-06T09:07:04.411Z,53.08
2019-05-06T09:09:36.727Z,50.65
2019-05-06T09:12:09.030Z,49.37
2019-05-06T09:14:43.035Z,48.37
2019-05-06T09:17:15.535Z,48.68
2019-05-06T09:19:47.785Z,48.92
2019-05-06T09:22:20.077Z,49.46
2019-05-06T09:24:53.077Z,50.85
2019-05-06T09:27:25.648Z,50.87
2019-05-06T09:29:57.895Z,51.59
2019-05-06T09:32:35.631Z,49.94
2019-05-06T09:35:04.168Z,49.06
2019-05-06T09:37:36.764Z,49.74
2019-05-06T09:40:09.041Z,49.79
2019-05-06T09:42:42.606Z,49.66
2019-05-06T09:45:15.118Z,47.95
2019-05-06T09:47:47.577Z,48.91
2019-05-06T09:50:19.897Z,47.88
2019-05-06T09:52:52.882Z,46.63
2019-05-06T09:55:25.351Z,47.71
2019-05-06T09:57:57.899Z,46.04
2019-05-06T10:00:32.762Z,46.38
2019-05-06T10:03:04.087Z,45.65
2019-05-06T10:05:36.409Z,44.82
2019-05-06T10:08:08.724Z,45.77
2019-05-06T10:10:55.294Z,44.12
2019-05-06T10:13:14.979Z,44.14
2019-05-06T10:15:47.283Z,43.35
2019-05-06T10:18:19.579Z,44.49
2019-05-06T10:20:51.950Z,43.91
2019-05-06T10:23:24.216Z,44.58
2019-05-06T10:25:56.550Z,44.62
2019-05-06T10:28:33.246Z,44.48
2019-05-06T10:31:03.898Z,45.97
2019-05-06T10:33:36.215Z,45.19
2019-05-06T10:36:08.703Z,43.71
2019-05-06T10:38:42.352Z,43.98
2019-05-06T10:41:16.404Z,44.55
2019-05-06T10:43:48.731Z,46.16
2019-05-06T10:46:22.536Z,47.64
2019-05-06T10:48:54.994Z,49.25
2019-05-06T10:51:27.235Z,49.72
2019-05-06T10:53:59.449Z,49.85
2019-05-06T10:56:32.989Z,50.55
2019-05-06T10:59:05.271Z,50.57
2019-05-06T11:01:37.484Z,51.20
2019-05-06T11:04:09.733Z,52.52
2019-05-06T11:06:43.041Z,53.24
2019-05-06T11:09:16.534Z,53.35
2019-05-06T11:11:48.767Z,53.11
2019-05-06T11:14:22.862Z,53.88
2019-05-06T11:16:54.995Z,52.17
2019-05-06T11:19:27.246Z,52.41
2019-05-06T11:21:59.479Z,52.78
2019-05-06T11:24:32.932Z,53.00
2019-05-06T11:27:05.213Z,52.39
2019-05-06T11:29:37.465Z,52.11
2019-05-06T11:32:09.709Z,51.09
2019-05-06T11:34:42.135Z,49.70
2019-05-06T11:37:15.015Z,49.13
2019-05-06T11:39:48.847Z,47.64
2019-05-06T11:42:28.997Z,47.37
2019-05-06T11:44:56.484Z,47.15
2019-05-06T11:47:29.178Z,48.76
2019-05-06T11:50:04.791Z,48.63
2019-05-06T11:52:37.572Z,48.50
2019-05-06T11:55:09.852Z,49.61
2019-05-06T11:57:44.538Z,49.61
2019-05-06T12:00:18.010Z,50.48
2019-05-06T12:02:50.234Z,50.45
2019-05-06T12:05:22.458Z,52.26
2019-05-06T12:08:04.617Z,52.18
2019-05-06T12:10:29.054Z,52.96
2019-05-06T12:13:02.796Z,54.06
2019-05-06T12:15:35.215Z,56.10
2019-05-06T12:18:07.301Z,54.29
2019-05-06T12:20:39.591Z,51.55
2019-05-06T12:23:15.287Z,53.22
2019-05-06T12:25:46.299Z,55.44
2019-05-06T12:28:18.636Z,53.70
2019-05-06T12:30:52.428Z,54.60
2019-05-06T12:33:24.962Z,55.22
2019-05-06T12:35:57.182Z,54.37
2019-05-06T12:38:30.850Z,51.82
2019-05-06T12:41:03.514Z,48.09
2019-05-06T12:43:36.112Z,44.46
2019-05-06T12:46:08.341Z,41.03
2019-05-06T12:48:40.645Z,41.13
2019-05-06T12:51:12.878Z,42.33
2019-05-06T12:53:45.363Z,43.60
2019-05-06T12:56:19.778Z,46.70
2019-05-06T12:58:52.632Z,50.13
2019-05-06T13:01:24.928Z,52.68
2019-05-06T13:03:57.177Z,51.02
2019-05-06T13:06:29.466Z,54.17
2019-05-06T13:09:05.001Z,53.57
2019-05-06T13:11:37.288Z,52.29
2019-05-06T13:14:09.578Z,52.87
2019-05-06T13:16:42.584Z,52.53
2019-05-06T13:19:16.470Z,48.77
2019-05-06T13:21:48.908Z,42.52
2019-05-06T13:24:22.829Z,40.40
2019-05-06T13:26:58.900Z,36.80
2019-05-06T13:29:35.162Z,38.15
2019-05-06T13:32:05.184Z,38.08
2019-05-06T13:34:38.510Z,38.08
2019-05-06T13:37:12.830Z,37.90
2019-05-06T13:39:44.922Z,40.27
2019-05-06T13:42:17.202Z,38.13
2019-05-06T13:44:49.422Z,38.58
2019-05-06T13:47:22.935Z,36.17
2019-05-06T13:49:55.245Z,38.29
2019-05-06T13:52:27.579Z,40.20
2019-05-06T13:55:02.371Z,40.50
2019-05-06T13:57:34.067Z,42.84
2019-05-06T14:00:06.369Z,42.80
2019-05-06T14:02:38.674Z,39.47
2019-05-06T14:05:12.109Z,39.13
2019-05-06T14:07:44.689Z,41.69
2019-05-06T14:10:16.965Z,43.52
2019-05-06T14:12:49.401Z,41.73
2019-05-06T14:15:23.209Z,42.59
2019-05-06T14:17:55.685Z,41.48
2019-05-06T14:20:27.960Z,42.40
2019-05-06T14:23:02.230Z,41.07
2019-05-06T14:25:34.758Z,40.22
2019-05-06T14:28:07.058Z,40.69
2019-05-06T14:30:39.396Z,42.32
2019-05-06T14:33:15.536Z,42.08
2019-05-06T14:35:47.984Z,42.49
2019-05-06T14:38:20.203Z,42.46
2019-05-06T14:40:52.690Z,44.56
2019-05-06T14:43:25.145Z,44.40
2019-05-06T14:45:57.619Z,44.83
2019-05-06T14:48:29.875Z,46.10
2019-05-06T14:51:02.417Z,48.14
2019-05-06T14:53:35.114Z,48.65
2019-05-06T14:56:07.592Z,48.75
2019-05-06T14:58:42.846Z,50.12
2019-05-06T15:01:15.341Z,49.65
2019-05-06T15:03:47.904Z,50.27
2019-05-06T15:06:22.176Z,51.20
2019-05-06T15:08:54.194Z,50.50
2019-05-06T15:11:26.486Z,50.45
2019-05-06T15:13:58.794Z,50.05
2019-05-06T15:16:33.744Z,49.93
2019-05-06T15:19:06.276Z,50.16
2019-05-06T15:21:39.141Z,49.70
2019-05-06T15:24:14.204Z,48.57
2019-05-06T15:26:45.687Z,48.43
2019-05-06T15:29:17.979Z,47.04
2019-05-06T15:31:52.731Z,46.22
2019-05-06T15:34:24.250Z,47.27
2019-05-06T15:36:56.582Z,46.72
2019-05-06T15:39:29.338Z,46.29
2019-05-06T15:42:01.934Z,44.86
2019-05-06T15:44:35.419Z,45.04
2019-05-06T15:47:10.374Z,45.71
2019-05-06T15:49:42.948Z,45.57
2019-05-06T15:52:15.292Z,45.83
2019-05-06T15:54:47.702Z,46.09
2019-05-06T15:57:20.017Z,45.98
2019-05-06T15:59:53.148Z,47.36
2019-05-06T16:02:26.863Z,47.79
2019-05-06T16:04:59.127Z,46.44
2019-05-06T16:07:35.012Z,47.60
2019-05-06T16:10:05.537Z,48.76
2019-05-06T16:12:37.897Z,49.59
2019-05-06T16:15:10.252Z,49.29
2019-05-06T16:17:42.836Z,50.51
2019-05-06T16:20:15.305Z,51.11
2019-05-06T16:22:47.901Z,51.71
2019-05-06T16:25:20.218Z,51.72
2019-05-06T16:27:54.608Z,52.28
2019-05-06T16:30:27.568Z,52.91
2019-05-06T16:32:59.760Z,52.98
2019-05-06T16:35:32.683Z,52.39
2019-05-06T16:38:05.150Z,52.81
2019-05-06T16:40:37.493Z,53.52
2019-05-06T16:43:09.940Z,53.79
2019-05-06T16:45:42.853Z,53.88
2019-05-06T16:48:16.434Z,54.98
2019-05-06T16:50:48.730Z,54.63
2019-05-06T16:53:23.012Z,55.24
2019-05-06T16:55:55.584Z,54.95
2019-05-06T16:58:27.968Z,55.01
2019-05-06T17:01:03.283Z,54.89
2019-05-06T17:03:35.297Z,55.42
2019-05-06T17:06:07.717Z,55.90
2019-05-06T17:08:42.303Z,55.88
2019-05-06T17:11:26.905Z,54.62
2019-05-06T17:13:47.965Z,54.72
2019-05-06T17:16:22.120Z,55.25
2019-05-06T17:18:56.615Z,55.48
2019-05-06T17:21:28.051Z,55.69
2019-05-06T17:24:02.323Z,55.32
2019-05-06T17:26:34.358Z,55.06
2019-05-06T17:29:06.780Z,54.70
2019-05-06T17:31:39.025Z,55.01
2019-05-06T17:34:12.849Z,55.02
2019-05-06T17:36:45.179Z,55.08
2019-05-06T17:39:17.603Z,55.25
2019-05-06T17:41:52.086Z,55.17
2019-05-06T17:44:25.818Z,55.36
2019-05-06T17:46:58.037Z,55.35
2019-05-06T17:49:30.402Z,55.82
2019-05-06T17:52:03.081Z,56.32
2019-05-06T17:54:35.325Z,56.83
2019-05-06T17:57:07.613Z,57.43
2019-05-06T17:59:41.919Z,57.52
2019-05-06T18:02:14.946Z,56.95
2019-05-06T18:04:47.310Z,57.41
2019-05-06T18:07:22.134Z,58.11
2019-05-06T18:09:53.871Z,57.61
2019-05-06T18:12:26.130Z,57.96
2019-05-06T18:15:02.685Z,57.28
2019-05-06T18:17:35.049Z,57.55
2019-05-06T18:20:07.372Z,57.81
2019-05-06T18:22:39.587Z,57.83
2019-05-06T18:25:12.815Z,57.65
2019-05-06T18:27:45.035Z,57.26
2019-05-06T18:30:24.776Z,57.19
2019-05-06T18:32:52.078Z,57.61
2019-05-06T18:35:24.343Z,57.65
2019-05-06T18:37:56.743Z,57.18
2019-05-06T18:40:29.003Z,57.46
2019-05-06T18:43:02.000Z,58.00
2019-05-06T18:45:34.309Z,58.16
2019-05-06T18:48:06.618Z,58.43
2019-05-06T18:50:39.076Z,59.03
2019-05-06T18:53:13.347Z,59.61
2019-05-06T18:55:46.335Z,60.04
2019-05-06T18:58:22.360Z,60.21
2019-05-06T19:00:55.066Z,60.83
2019-05-06T19:03:28.959Z,61.26
2019-05-06T19:06:02.320Z,61.68
2019-05-06T19:08:35.598Z,62.02
2019-05-06T19:11:09.438Z,62.30
2019-05-06T19:13:45.108Z,62.34
2019-05-06T19:16:17.575Z,62.60
2019-05-06T19:18:52.220Z,62.82
2019-05-06T19:21:24.569Z,62.94
2019-05-06T19:23:56.958Z,62.69
2019-05-06T19:26:29.270Z,62.90
2019-05-06T19:29:04.343Z,62.13
2019-05-06T19:31:35.537Z,61.91
2019-05-06T19:34:07.785Z,61.45
2019-05-06T19:36:42.153Z,61.70
2019-05-06T19:39:14.014Z,61.63
2019-05-06T19:41:46.266Z,62.13
2019-05-06T19:44:18.552Z,62.48
2019-05-06T19:46:53.100Z,62.47
2019-05-06T19:49:24.917Z,62.71
2019-05-06T19:51:57.528Z,62.76
2019-05-06T19:54:29.736Z,63.03
2019-05-06T19:57:02.582Z,63.32
2019-05-06T19:59:34.923Z,63.77
2019-05-06T20:02:07.347Z,63.87
2019-05-06T20:04:39.572Z,64.00
2019-05-06T20:07:13.354Z,64.26
2019-05-06T20:09:45.738Z,64.51
2019-05-06T20:12:17.980Z,64.62
2019-05-06T20:14:52.356Z,64.53
2019-05-06T20:17:24.184Z,64.67
2019-05-06T20:19:56.419Z,64.64
2019-05-06T20:22:28.688Z,65.20
2019-05-06T20:25:03.046Z,65.43
2019-05-06T20:27:35.136Z,65.75
2019-05-06T20:30:07.616Z,65.87
2019-05-06T20:32:42.430Z,65.95
2019-05-06T20:35:14.274Z,66.02
2019-05-06T20:37:46.499Z,66.01
2019-05-06T20:40:18.739Z,65.69
2019-05-06T20:42:51.076Z,65.20
2019-05-06T20:45:23.284Z,65.28
2019-05-06T20:47:55.871Z,65.68
2019-05-06T20:50:28.546Z,65.55
2019-05-06T20:53:00.831Z,65.56
2019-05-06T20:55:35.791Z,65.31
2019-05-06T20:58:07.195Z,65.96
2019-05-06T21:00:39.484Z,66.41
2019-05-06T21:03:12.297Z,66.31
2019-05-06T21:05:44.727Z,66.48
2019-05-06T21:08:16.946Z,66.50
2019-05-06T21:10:49.867Z,66.52
2019-05-06T21:13:31.761Z,66.57
2019-05-06T21:15:57.295Z,66.37
2019-05-06T21:18:29.516Z,66.57
2019-05-06T21:21:02.260Z,66.39
2019-05-06T21:23:34.566Z,66.49
2019-05-06T21:26:07.191Z,67.01
2019-05-06T21:28:46.625Z,66.70
2019-05-06T21:31:19.001Z,66.76
2019-05-06T21:33:52.232Z,66.98
2019-05-06T21:36:24.563Z,66.73
2019-05-06T21:38:56.737Z,66.46
2019-05-06T21:41:28.948Z,66.75
2019-05-06T21:44:02.448Z,67.00
2019-05-06T21:46:34.823Z,66.90
2019-05-06T21:49:07.057Z,65.80
2019-05-06T21:51:39.252Z,66.33
2019-05-06T21:54:12.542Z,66.67
2019-05-06T21:56:46.031Z,66.34
2019-05-06T21:59:18.456Z,65.86
2019-05-06T22:01:52.055Z,65.63
2019-05-06T22:04:24.552Z,65.62
2019-05-06T22:06:56.819Z,65.60
2019-05-06T22:09:29.045Z,65.23
2019-05-06T22:12:02.427Z,65.17
2019-05-06T22:14:34.955Z,65.09
2019-05-06T22:17:07.379Z,64.82
2019-05-06T22:19:39.659Z,65.31
2019-05-06T22:22:14.376Z,65.00
2019-05-06T22:24:45.995Z,64.74
2019-05-06T22:27:18.089Z,64.47
2019-05-06T22:29:52.235Z,64.94
2019-05-06T22:32:24.460Z,65.08
2019-05-06T22:34:56.971Z,65.28
2019-05-06T22:37:29.465Z,65.16
2019-05-06T22:40:02.337Z,65.25
2019-05-06T22:42:35.051Z,65.21
2019-05-06T22:45:07.754Z,65.83
2019-05-06T22:47:41.959Z,65.83
2019-05-06T22:50:13.960Z,65.60
2019-05-06T22:52:46.229Z,66.24
2019-05-06T22:55:18.497Z,66.63
2019-05-06T22:57:52.820Z,67.02
2019-05-06T23:00:24.780Z,67.23
2019-05-06T23:02:57.129Z,67.46
2019-05-06T23:05:29.566Z,67.66
2019-05-06T23:08:02.800Z,67.30
2019-05-06T23:10:35.505Z,66.81
2019-05-06T23:13:08.070Z,66.63
2019-05-06T23:15:42.076Z,67.06
2019-05-06T23:18:14.460Z,67.39
2019-05-06T23:20:46.729Z,66.92
2019-05-06T23:23:19.129Z,66.84
2019-05-06T23:25:52.538Z,67.07
2019-05-06T23:28:25.149Z,66.57
2019-05-06T23:31:01.894Z,67.20
2019-05-06T23:33:33.654Z,66.76
2019-05-06T23:36:06.951Z,66.83
2019-05-06T23:38:39.244Z,67.02
2019-05-06T23:41:12.352Z,67.27
2019-05-06T23:43:44.838Z,68.23
2019-05-06T23:46:17.274Z,68.85
2019-05-06T23:48:49.526Z,69.04
2019-05-06T23:51:22.353Z,69.49
2019-05-06T23:53:54.931Z,69.37
2019-05-06T23:56:27.212Z,69.58
2019-05-06T23:58:59.471Z,69.79
